createdAt,value
2019-03-09T00:01:47.878Z,3.30
2019-03-09T00:04:15.209Z,4.10
2019-03-09T00:06:42.504Z,4.00
2019-03-09T00:09:09.792Z,4.10
2019-03-09T00:11:37.105Z,4.10
2019-03-09T00:14:04.869Z,3.63
2019-03-09T00:16:32.273Z,4.27
2019-03-09T00:18:59.590Z,4.07
2019-03-09T00:21:26.889Z,4.30
2019-03-09T00:24:25.677Z,3.57
2019-03-09T00:26:57.524Z,3.67
2019-03-09T00:29:50.241Z,3.33
2019-03-09T00:32:19.711Z,3.63
2019-03-09T00:34:46.989Z,3.63
2019-03-09T00:37:14.261Z,3.30
2019-03-09T00:39:41.589Z,3.50
2019-03-09T00:42:08.951Z,3.93
2019-03-09T00:44:36.258Z,4.20
2019-03-09T00:47:03.553Z,4.03
2019-03-09T00:49:30.911Z,3.90
2019-03-09T00:51:58.214Z,3.80
2019-03-09T00:54:25.493Z,4.03
2019-03-09T00:56:52.850Z,3.87
2019-03-09T00:59:20.120Z,3.77
2019-03-09T01:01:47.411Z,3.70
2019-03-09T01:04:14.709Z,3.47
2019-03-09T01:06:42.050Z,3.43
2019-03-09T01:09:09.529Z,2.67
2019-03-09T01:11:36.815Z,3.30
2019-03-09T01:14:04.390Z,2.10
2019-03-09T01:16:31.711Z,1.77
2019-03-09T01:18:59.072Z,1.50
2019-03-09T01:21:26.770Z,2.67
2019-03-09T01:23:54.071Z,3.53
2019-03-09T01:26:21.503Z,2.83
2019-03-09T01:28:48.813Z,3.20
2019-03-09T01:31:16.530Z,8.37
2019-03-09T01:33:43.830Z,3.10
2019-03-09T01:36:11.096Z,3.77
2019-03-09T01:38:38.412Z,3.30
2019-03-09T01:41:05.710Z,4.00
2019-03-09T01:43:33.012Z,3.87
2019-03-09T01:46:00.381Z,3.30
2019-03-09T01:48:27.671Z,4.37
2019-03-09T01:50:54.977Z,3.57
2019-03-09T01:53:22.272Z,3.50
2019-03-09T01:55:49.589Z,3.80
2019-03-09T01:58:16.890Z,3.50
2019-03-09T02:00:44.191Z,4.37
2019-03-09T02:03:11.529Z,4.27
2019-03-09T02:05:38.849Z,3.43
2019-03-09T02:08:06.187Z,3.40
2019-03-09T02:10:33.526Z,3.50
2019-03-09T02:13:00.875Z,3.57
2019-03-09T02:15:28.125Z,3.90
2019-03-09T02:17:55.430Z,4.10
2019-03-09T02:20:22.710Z,4.23
2019-03-09T02:22:50.012Z,4.13
2019-03-09T02:25:17.312Z,4.33
2019-03-09T02:27:44.633Z,4.67
2019-03-09T02:30:12.594Z,4.40
2019-03-09T02:32:39.893Z,4.10
2019-03-09T02:35:08.454Z,3.60
2019-03-09T02:37:35.770Z,3.70
2019-03-09T02:40:06.975Z,3.70
2019-03-09T02:42:34.292Z,3.60
2019-03-09T02:45:01.637Z,3.70
2019-03-09T02:47:29.009Z,3.73
2019-03-09T02:49:56.338Z,3.50
2019-03-09T02:52:23.660Z,4.07
2019-03-09T02:54:50.951Z,3.97
2019-03-09T02:57:18.253Z,3.53
2019-03-09T02:59:45.551Z,4.07
2019-03-09T03:02:25.250Z,3.87
2019-03-09T03:04:52.530Z,3.50
2019-03-09T03:07:19.826Z,3.97
2019-03-09T03:09:47.170Z,3.90
2019-03-09T03:12:14.469Z,4.03
2019-03-09T03:14:41.773Z,3.67
2019-03-09T03:17:09.092Z,3.93
2019-03-09T03:19:36.390Z,4.00
2019-03-09T03:22:03.802Z,4.00
2019-03-09T03:24:31.154Z,4.50
2019-03-09T03:26:58.489Z,8.57
2019-03-09T03:29:25.790Z,4.50
2019-03-09T03:31:53.576Z,4.67
2019-03-09T03:34:20.833Z,4.00
2019-03-09T03:36:48.200Z,6.53
2019-03-09T03:39:15.552Z,4.70
2019-03-09T03:41:42.988Z,5.00
2019-03-09T03:44:10.417Z,5.60
2019-03-09T03:46:40.088Z,4.90
2019-03-09T03:49:07.373Z,5.20
2019-03-09T03:51:34.666Z,5.37
2019-03-09T03:54:01.949Z,4.63
2019-03-09T03:56:29.275Z,4.60
2019-03-09T03:58:56.569Z,4.30
2019-03-09T04:01:24.199Z,4.60
2019-03-09T04:03:51.492Z,5.00
2019-03-09T04:06:18.772Z,5.70
2019-03-09T04:08:46.079Z,5.73
2019-03-09T04:11:13.398Z,5.00
2019-03-09T04:13:40.682Z,4.67
2019-03-09T04:16:07.971Z,4.80
2019-03-09T04:18:35.273Z,5.30
2019-03-09T04:21:02.580Z,4.73
2019-03-09T04:23:29.873Z,4.90
2019-03-09T04:25:57.157Z,4.67
2019-03-09T04:28:24.467Z,5.50
2019-03-09T04:30:51.725Z,4.57
2019-03-09T04:33:19.042Z,4.50
2019-03-09T04:35:46.304Z,4.43
2019-03-09T04:38:13.861Z,5.20
2019-03-09T04:40:41.239Z,4.53
2019-03-09T04:43:08.484Z,4.10
2019-03-09T04:45:35.741Z,4.70
2019-03-09T04:48:03.026Z,4.97
2019-03-09T04:50:30.291Z,4.67
2019-03-09T04:52:57.558Z,5.10
2019-03-09T04:55:24.850Z,4.80
2019-03-09T04:57:52.111Z,4.80
2019-03-09T05:00:19.370Z,6.67
2019-03-09T05:02:46.663Z,5.53
2019-03-09T05:05:13.932Z,5.27
2019-03-09T05:08:02.591Z,5.07
2019-03-09T05:10:45.645Z,5.77
2019-03-09T05:13:16.872Z,6.77
2019-03-09T05:15:44.124Z,5.20
2019-03-09T05:18:11.381Z,5.90
2019-03-09T05:20:38.825Z,6.00
2019-03-09T05:23:06.378Z,5.50
2019-03-09T05:25:33.936Z,5.47
2019-03-09T05:28:01.530Z,6.00
2019-03-09T05:30:39.412Z,7.10
2019-03-09T05:33:06.694Z,6.60
2019-03-09T05:35:33.965Z,6.03
2019-03-09T05:38:01.251Z,6.13
2019-03-09T05:40:28.540Z,6.13
2019-03-09T05:42:55.841Z,6.23
2019-03-09T05:45:23.337Z,6.07
2019-03-09T05:47:50.795Z,6.30
2019-03-09T05:50:18.420Z,5.83
2019-03-09T05:52:50.000Z,7.20
2019-03-09T05:55:19.183Z,6.80
2019-03-09T05:57:46.608Z,6.03
2019-03-09T06:00:15.738Z,7.30
2019-03-09T06:02:43.004Z,6.37
2019-03-09T06:05:39.535Z,6.47
2019-03-09T06:08:07.660Z,6.53
2019-03-09T06:10:34.923Z,8.20
2019-03-09T06:13:02.226Z,6.73
2019-03-09T06:15:29.532Z,6.87
2019-03-09T06:17:56.820Z,6.80
2019-03-09T06:20:24.159Z,5.90
2019-03-09T06:22:51.442Z,6.60
2019-03-09T06:25:18.725Z,6.27
2019-03-09T06:27:46.020Z,6.03
2019-03-09T06:30:13.718Z,6.63
2019-03-09T06:33:34.078Z,6.70
2019-03-09T06:36:37.677Z,7.23
2019-03-09T06:39:10.778Z,8.20
2019-03-09T06:41:55.971Z,8.53
2019-03-09T06:44:23.261Z,8.43
2019-03-09T06:46:50.509Z,7.53
2019-03-09T06:49:17.810Z,7.63
2019-03-09T06:51:45.218Z,7.33
2019-03-09T06:54:12.531Z,7.67
2019-03-09T06:56:42.877Z,7.37
2019-03-09T06:59:10.407Z,6.60
2019-03-09T07:01:37.731Z,7.40
2019-03-09T07:04:05.236Z,7.43
2019-03-09T07:06:32.844Z,7.60
2019-03-09T07:09:00.422Z,7.37
2019-03-09T07:11:28.073Z,7.33
2019-03-09T07:13:55.640Z,7.57
2019-03-09T07:16:23.143Z,7.67
2019-03-09T07:18:50.385Z,7.93
2019-03-09T07:21:17.664Z,8.00
2019-03-09T07:23:44.944Z,7.83
2019-03-09T07:26:12.192Z,8.63
2019-03-09T07:28:39.476Z,9.10
2019-03-09T07:31:06.751Z,8.07
2019-03-09T07:33:34.068Z,7.83
2019-03-09T07:36:04.318Z,7.83
2019-03-09T07:38:31.836Z,7.50
2019-03-09T07:40:59.139Z,7.17
2019-03-09T07:43:26.441Z,7.83
2019-03-09T07:45:53.731Z,8.53
2019-03-09T07:48:20.971Z,8.13
2019-03-09T07:50:48.251Z,7.13
2019-03-09T07:53:15.541Z,7.50
2019-03-09T07:55:42.841Z,7.33
2019-03-09T07:58:10.141Z,7.17
2019-03-09T08:00:37.430Z,7.90
2019-03-09T08:03:04.822Z,8.03
2019-03-09T08:05:32.091Z,9.03
2019-03-09T08:07:59.387Z,8.70
2019-03-09T08:10:27.133Z,8.10
2019-03-09T08:12:54.437Z,7.83
2019-03-09T08:15:21.785Z,7.63
2019-03-09T08:17:49.442Z,7.30
2019-03-09T08:20:16.729Z,8.07
2019-03-09T08:22:44.064Z,8.23
2019-03-09T08:25:12.331Z,8.30
2019-03-09T08:27:39.648Z,7.43
2019-03-09T08:30:10.516Z,10.30
2019-03-09T08:32:37.820Z,8.07
2019-03-09T08:35:05.213Z,8.70
2019-03-09T08:37:32.531Z,7.40
2019-03-09T08:39:59.886Z,7.63
2019-03-09T08:42:27.185Z,8.63
2019-03-09T08:44:54.423Z,7.90
2019-03-09T08:47:21.714Z,8.10
2019-03-09T08:49:49.039Z,9.10
2019-03-09T08:52:16.373Z,8.50
2019-03-09T08:54:43.682Z,8.47
2019-03-09T08:57:11.039Z,8.00
2019-03-09T08:59:38.355Z,7.23
2019-03-09T09:02:05.699Z,8.50
2019-03-09T09:04:34.616Z,8.87
2019-03-09T09:07:02.281Z,7.37
2019-03-09T09:09:29.582Z,6.20
2019-03-09T09:11:56.925Z,6.40
2019-03-09T09:14:24.309Z,6.40
2019-03-09T09:16:51.946Z,6.03
2019-03-09T09:19:19.249Z,6.73
2019-03-09T09:21:46.520Z,6.50
2019-03-09T09:24:13.827Z,8.73
2019-03-09T09:26:41.205Z,6.50
2019-03-09T09:29:08.469Z,5.63
2019-03-09T09:31:35.782Z,5.40
2019-03-09T09:34:03.107Z,6.10
2019-03-09T09:36:30.410Z,5.07
2019-03-09T09:38:57.741Z,4.73
2019-03-09T09:41:25.043Z,4.23
2019-03-09T09:43:52.349Z,4.40
2019-03-09T09:46:19.713Z,4.97
2019-03-09T09:48:46.991Z,4.90
2019-03-09T09:51:14.345Z,5.20
2019-03-09T09:53:41.683Z,4.03
2019-03-09T09:56:09.042Z,4.10
2019-03-09T09:58:36.397Z,4.10
2019-03-09T10:01:03.757Z,4.87
2019-03-09T10:03:31.078Z,6.23
2019-03-09T10:05:58.356Z,3.80
2019-03-09T10:08:25.672Z,4.93
2019-03-09T10:10:53.024Z,5.50
2019-03-09T10:13:20.357Z,4.77
2019-03-09T10:15:47.752Z,4.13
2019-03-09T10:18:15.042Z,3.77
2019-03-09T10:20:42.401Z,4.30
2019-03-09T10:23:09.752Z,7.60
2019-03-09T10:25:37.081Z,4.23
2019-03-09T10:28:04.522Z,5.37
2019-03-09T10:30:33.897Z,4.53
2019-03-09T10:33:01.222Z,5.43
2019-03-09T10:35:28.584Z,11.93
2019-03-09T10:37:56.003Z,6.87
2019-03-09T10:40:23.361Z,5.67
2019-03-09T10:42:50.705Z,4.83
2019-03-09T10:45:18.142Z,3.90
2019-03-09T10:47:45.495Z,4.60
2019-03-09T10:50:13.260Z,4.50
2019-03-09T10:52:40.634Z,4.33
2019-03-09T10:55:10.553Z,4.47
2019-03-09T10:57:37.907Z,4.03
2019-03-09T11:00:09.921Z,3.80
2019-03-09T11:02:37.749Z,5.00
2019-03-09T11:05:05.423Z,3.87
2019-03-09T11:07:32.739Z,4.03
2019-03-09T11:10:00.335Z,2.73
2019-03-09T11:12:27.644Z,3.57
2019-03-09T11:14:54.963Z,3.47
2019-03-09T11:17:22.439Z,3.63
2019-03-09T11:19:50.441Z,4.83
2019-03-09T11:22:17.733Z,2.30
2019-03-09T11:24:45.054Z,1.70
2019-03-09T11:27:12.382Z,2.57
2019-03-09T11:29:40.088Z,1.07
2019-03-09T11:32:07.417Z,1.10
2019-03-09T11:34:34.754Z,3.10
2019-03-09T11:37:02.102Z,2.37
2019-03-09T11:39:29.432Z,1.53
2019-03-09T11:41:56.804Z,1.73
2019-03-09T11:44:26.326Z,1.73
2019-03-09T11:46:53.665Z,1.60
2019-03-09T11:49:21.095Z,1.30
2019-03-09T11:51:48.439Z,2.73
2019-03-09T11:54:15.720Z,2.90
2019-03-09T11:56:43.101Z,1.47
2019-03-09T11:59:10.890Z,2.77
2019-03-09T12:01:38.262Z,3.17
2019-03-09T12:04:05.574Z,2.97
2019-03-09T12:06:32.890Z,2.70
2019-03-09T12:09:00.213Z,2.30
2019-03-09T12:11:28.030Z,1.47
2019-03-09T12:13:55.421Z,1.33
2019-03-09T12:16:22.791Z,1.43
2019-03-09T12:18:50.244Z,2.47
2019-03-09T12:21:18.653Z,3.43
2019-03-09T12:23:46.023Z,1.57
2019-03-09T12:26:13.386Z,2.60
2019-03-09T12:28:40.871Z,2.00
2019-03-09T12:31:08.184Z,1.90
2019-03-09T12:33:35.497Z,4.43
2019-03-09T12:36:02.802Z,2.27
2019-03-09T12:38:30.283Z,1.77
2019-03-09T12:40:57.606Z,1.90
2019-03-09T12:43:25.016Z,2.37
2019-03-09T12:45:52.463Z,2.47
2019-03-09T12:48:19.938Z,2.07
2019-03-09T12:50:47.243Z,1.30
2019-03-09T12:53:14.746Z,3.13
2019-03-09T12:55:42.147Z,1.07
2019-03-09T12:58:09.588Z,1.57
2019-03-09T13:00:37.147Z,1.20
2019-03-09T13:03:04.567Z,1.40
2019-03-09T13:05:31.944Z,2.30
2019-03-09T13:07:59.382Z,1.50
2019-03-09T13:10:26.691Z,1.57
2019-03-09T13:12:54.206Z,0.80
2019-03-09T13:15:21.728Z,1.10
2019-03-09T13:17:49.223Z,1.43
2019-03-09T13:20:16.764Z,1.20
2019-03-09T13:22:44.403Z,1.70
2019-03-09T13:25:12.525Z,5.00
2019-03-09T13:27:40.025Z,1.20
2019-03-09T13:30:09.877Z,1.50
2019-03-09T13:32:37.409Z,1.43
2019-03-09T13:35:05.093Z,1.53
2019-03-09T13:37:32.473Z,1.13
2019-03-09T13:40:00.058Z,1.67
2019-03-09T13:42:27.623Z,2.50
2019-03-09T13:44:55.082Z,1.97
2019-03-09T13:47:22.526Z,1.47
2019-03-09T13:49:50.041Z,1.13
2019-03-09T13:52:17.564Z,4.20
2019-03-09T13:54:45.000Z,3.07
2019-03-09T13:57:12.534Z,1.30
2019-03-09T13:59:40.163Z,2.07
2019-03-09T14:02:08.159Z,2.40
2019-03-09T14:04:35.733Z,3.33
2019-03-09T14:07:03.345Z,1.60
2019-03-09T14:09:30.929Z,1.53
2019-03-09T14:11:58.448Z,2.03
2019-03-09T14:14:25.958Z,1.93
2019-03-09T14:16:53.661Z,1.10
2019-03-09T14:19:21.223Z,1.17
2019-03-09T14:21:49.010Z,1.53
2019-03-09T14:24:16.625Z,1.43
2019-03-09T14:26:44.276Z,2.07
2019-03-09T14:29:11.937Z,1.23
2019-03-09T14:31:39.468Z,1.90
2019-03-09T14:34:08.662Z,0.90
2019-03-09T14:36:36.277Z,1.30
2019-03-09T14:39:05.810Z,2.07
2019-03-09T14:41:33.642Z,1.40
2019-03-09T14:44:01.182Z,4.80
2019-03-09T14:46:29.161Z,1.77
2019-03-09T14:48:56.900Z,1.80
2019-03-09T14:51:24.396Z,1.10
2019-03-09T14:53:52.423Z,2.20
2019-03-09T14:56:20.050Z,1.97
2019-03-09T14:58:47.681Z,1.00
2019-03-09T15:01:16.308Z,2.10
2019-03-09T15:03:43.861Z,4.63
2019-03-09T15:06:11.459Z,2.70
2019-03-09T15:08:39.977Z,1.20
2019-03-09T15:11:07.765Z,1.37
2019-03-09T15:13:37.446Z,1.73
2019-03-09T15:16:05.166Z,1.03
2019-03-09T15:18:32.802Z,1.67
2019-03-09T15:21:00.963Z,1.77
2019-03-09T15:23:28.985Z,2.17
2019-03-09T15:25:56.687Z,2.00
2019-03-09T15:28:25.469Z,2.30
2019-03-09T15:30:53.202Z,0.73
2019-03-09T15:33:21.889Z,2.60
2019-03-09T15:35:49.787Z,2.20
2019-03-09T15:38:19.238Z,2.57
2019-03-09T15:40:47.400Z,2.30
2019-03-09T15:43:16.646Z,1.37
2019-03-09T15:45:44.456Z,1.40
2019-03-09T15:48:12.415Z,1.43
2019-03-09T15:50:40.139Z,1.50
2019-03-09T15:53:07.918Z,2.60
2019-03-09T15:55:36.111Z,1.17
2019-03-09T15:58:04.388Z,2.33
2019-03-09T16:00:33.585Z,2.23
2019-03-09T16:03:01.257Z,0.87
2019-03-09T16:05:28.967Z,0.63
2019-03-09T16:07:56.747Z,0.60
2019-03-09T16:10:24.394Z,4.33
2019-03-09T16:12:52.485Z,0.40
2019-03-09T16:15:21.535Z,1.37
2019-03-09T16:17:49.337Z,0.77
2019-03-09T16:20:17.309Z,0.40
2019-03-09T16:22:45.036Z,0.40
2019-03-09T16:25:13.096Z,0.67
2019-03-09T16:27:40.791Z,0.87
2019-03-09T16:30:11.074Z,0.57
2019-03-09T16:32:42.617Z,0.80
2019-03-09T16:35:10.636Z,0.50
2019-03-09T16:37:40.572Z,0.37
2019-03-09T16:40:09.281Z,0.43
2019-03-09T16:42:37.056Z,1.13
2019-03-09T16:45:08.362Z,0.60
2019-03-09T16:47:36.129Z,1.30
2019-03-09T16:50:05.355Z,0.70
2019-03-09T16:52:35.742Z,0.10
2019-03-09T16:55:03.996Z,0.13
2019-03-09T16:57:31.924Z,0.43
2019-03-09T17:00:00.043Z,0.60
2019-03-09T17:02:28.394Z,1.03
2019-03-09T17:04:56.333Z,0.77
2019-03-09T17:07:24.116Z,0.90
2019-03-09T17:09:51.781Z,1.43
2019-03-09T17:12:19.878Z,0.90
2019-03-09T17:14:47.688Z,1.40
2019-03-09T17:17:15.423Z,1.30
2019-03-09T17:19:43.600Z,1.33
2019-03-09T17:22:11.263Z,0.93
2019-03-09T17:24:40.259Z,0.57
2019-03-09T17:27:08.124Z,1.00
2019-03-09T17:29:36.162Z,1.37
2019-03-09T17:32:04.351Z,2.03
2019-03-09T17:34:32.256Z,1.50
2019-03-09T17:36:59.898Z,0.77
2019-03-09T17:39:28.142Z,0.60
2019-03-09T17:41:56.301Z,1.23
2019-03-09T17:44:24.391Z,1.30
2019-03-09T17:46:52.240Z,1.10
2019-03-09T17:49:20.067Z,1.50
2019-03-09T17:51:47.973Z,0.90
2019-03-09T17:54:15.808Z,1.27
2019-03-09T17:56:44.344Z,1.03
2019-03-09T17:59:12.068Z,1.20
2019-03-09T18:01:39.923Z,1.90
2019-03-09T18:04:08.704Z,0.97
2019-03-09T18:06:36.415Z,1.10
2019-03-09T18:09:06.073Z,1.10
2019-03-09T18:11:33.890Z,1.20
2019-03-09T18:14:06.899Z,1.70
2019-03-09T18:16:31.266Z,2.17
2019-03-09T18:18:58.967Z,1.10
2019-03-09T18:21:27.092Z,2.30
2019-03-09T18:23:54.914Z,1.87
2019-03-09T18:26:22.744Z,2.17
2019-03-09T18:28:50.564Z,1.87
2019-03-09T18:31:18.303Z,2.17
2019-03-09T18:33:46.101Z,2.30
2019-03-09T18:36:13.908Z,1.70
2019-03-09T18:38:41.593Z,2.70
2019-03-09T18:41:10.604Z,3.03
2019-03-09T18:43:39.687Z,4.60
2019-03-09T18:46:07.553Z,3.53
2019-03-09T18:48:38.044Z,2.13
2019-03-09T18:51:05.882Z,2.10
2019-03-09T18:53:33.667Z,3.43
2019-03-09T18:56:01.277Z,2.63
2019-03-09T18:58:31.351Z,2.00
2019-03-09T19:00:59.746Z,2.00
2019-03-09T19:03:27.524Z,4.53
2019-03-09T19:05:56.710Z,3.03
2019-03-09T19:08:25.301Z,1.93
2019-03-09T19:10:53.986Z,2.23
2019-03-09T19:13:24.454Z,3.63
2019-03-09T19:15:52.098Z,3.40
2019-03-09T19:18:20.007Z,2.37
2019-03-09T19:20:47.772Z,2.23
2019-03-09T19:23:15.490Z,2.30
2019-03-09T19:25:43.565Z,2.13
2019-03-09T19:28:11.294Z,2.83
2019-03-09T19:30:41.033Z,1.83
2019-03-09T19:33:08.689Z,2.00
2019-03-09T19:35:36.443Z,2.40
2019-03-09T19:38:04.372Z,1.67
2019-03-09T19:40:32.338Z,3.07
2019-03-09T19:43:00.599Z,1.80
2019-03-09T19:45:28.215Z,1.33
2019-03-09T19:47:55.881Z,1.13
2019-03-09T19:50:24.917Z,0.87
2019-03-09T19:52:52.824Z,0.90
2019-03-09T19:55:20.595Z,1.70
2019-03-09T19:57:48.277Z,0.97
2019-03-09T20:00:16.216Z,1.33
2019-03-09T20:02:43.917Z,1.87
2019-03-09T20:05:11.868Z,1.43
2019-03-09T20:07:40.764Z,0.60
2019-03-09T20:10:10.343Z,1.10
2019-03-09T20:12:43.317Z,1.03
2019-03-09T20:15:12.145Z,2.60
2019-03-09T20:17:39.848Z,1.13
2019-03-09T20:20:08.837Z,1.20
2019-03-09T20:22:37.196Z,0.80
2019-03-09T20:25:05.098Z,1.40
2019-03-09T20:27:32.922Z,1.20
2019-03-09T20:30:00.631Z,1.63
2019-03-09T20:32:28.635Z,1.40
2019-03-09T20:34:58.031Z,1.10
2019-03-09T20:37:25.723Z,1.23
2019-03-09T20:39:53.537Z,1.70
2019-03-09T20:42:21.489Z,1.23
2019-03-09T20:44:49.601Z,2.07
2019-03-09T20:47:17.614Z,1.20
2019-03-09T20:49:45.454Z,1.97
2019-03-09T20:52:13.277Z,1.83
2019-03-09T20:54:40.932Z,1.40
2019-03-09T20:57:08.711Z,1.30
2019-03-09T20:59:37.730Z,2.37
2019-03-09T21:02:05.717Z,1.23
2019-03-09T21:04:33.484Z,3.07
2019-03-09T21:07:03.756Z,1.13
2019-03-09T21:09:31.435Z,1.97
2019-03-09T21:11:59.324Z,1.60
2019-03-09T21:14:27.141Z,1.60
2019-03-09T21:16:54.817Z,2.20
2019-03-09T21:19:22.841Z,1.37
2019-03-09T21:21:50.951Z,1.10
2019-03-09T21:24:19.739Z,1.90
2019-03-09T21:26:47.859Z,1.77
2019-03-09T21:29:15.640Z,3.53
2019-03-09T21:31:44.478Z,2.07
2019-03-09T21:34:12.241Z,2.67
2019-03-09T21:36:39.897Z,2.10
2019-03-09T21:39:07.941Z,1.33
2019-03-09T21:41:35.561Z,1.73
2019-03-09T21:44:03.240Z,2.70
2019-03-09T21:46:31.356Z,2.13
2019-03-09T21:49:02.427Z,2.10
2019-03-09T21:51:30.071Z,1.50
2019-03-09T21:53:57.780Z,2.67
2019-03-09T21:56:25.438Z,1.67
2019-03-09T21:58:53.102Z,1.73
2019-03-09T22:01:20.662Z,3.10
2019-03-09T22:03:48.275Z,2.70
2019-03-09T22:06:15.758Z,1.93
2019-03-09T22:08:43.303Z,1.60
2019-03-09T22:11:10.908Z,1.70
2019-03-09T22:13:38.409Z,2.50
2019-03-09T22:16:05.970Z,1.33
2019-03-09T22:18:33.338Z,1.70
2019-03-09T22:21:00.882Z,2.43
2019-03-09T22:23:28.217Z,1.93
2019-03-09T22:25:55.563Z,2.03
2019-03-09T22:28:22.971Z,1.80
2019-03-09T22:30:50.375Z,1.70
2019-03-09T22:33:17.843Z,1.63
2019-03-09T22:35:45.284Z,1.93
2019-03-09T22:38:14.914Z,2.33
2019-03-09T22:40:42.359Z,1.77
2019-03-09T22:43:11.981Z,1.50
2019-03-09T22:45:39.353Z,1.53
2019-03-09T22:48:06.732Z,2.23
2019-03-09T22:50:34.069Z,2.00
2019-03-09T22:53:01.457Z,4.43
2019-03-09T22:55:28.794Z,2.27
2019-03-09T22:57:56.160Z,1.57
2019-03-09T23:00:23.838Z,1.63
2019-03-09T23:02:51.219Z,1.80
2019-03-09T23:05:18.546Z,2.00
2019-03-09T23:07:45.881Z,2.37
2019-03-09T23:10:14.506Z,1.43
2019-03-09T23:12:41.859Z,1.97
2019-03-09T23:15:10.911Z,1.47
2019-03-09T23:17:38.242Z,1.40
2019-03-09T23:20:06.460Z,1.53
2019-03-09T23:22:33.779Z,1.40
2019-03-09T23:25:01.224Z,1.60
2019-03-09T23:27:28.603Z,1.27
2019-03-09T23:29:56.139Z,1.80
2019-03-09T23:32:23.491Z,1.70
2019-03-09T23:34:50.855Z,1.20
2019-03-09T23:37:18.198Z,2.50
2019-03-09T23:39:45.563Z,1.20
2019-03-09T23:42:12.905Z,1.40
2019-03-09T23:44:40.212Z,1.93
2019-03-09T23:47:07.586Z,1.60
2019-03-09T23:49:34.881Z,1.40
2019-03-09T23:52:02.211Z,1.20
2019-03-09T23:54:29.521Z,1.73
2019-03-09T23:56:56.853Z,1.83
2019-03-09T23:59:24.241Z,1.10
